Queenborough, United Kingdom
Current Conditions -  °F | °C
As of 1:20 PM on Sunday 23 Nov 2014 (Local Time) from EGMC Reporting Station
Moderate Rain Moderate Rain  
Wind Chill: 39°   Ceiling: 800
Heat Index: 45°   Visibility: 4mi
Dew Point: 43°   Wind: 10mph
Humidity: 93%   Direction: 330°NNW
Pressure: 29.97"   Gusts: NA
Location:  51.42°N, 0.75°E
Report Text: EGMC 231320Z 33009KT 300V010 6000 RA BKN008 OVC012 07/06 Q1015
Loading
Personal Weather Stations






























Interactive Weather Map New forecast layout! Learn more

10-Day Weather Forecast

Advertisements
Track Severe Weather on mobile